createdAt,value
2018-06-18T00:02:20.617Z,100838.91
2018-06-18T00:04:49.744Z,100829.08
2018-06-18T00:07:18.798Z,100820.09
2018-06-18T00:09:47.774Z,100820.63
2018-06-18T00:12:16.669Z,100822.48
2018-06-18T00:14:45.614Z,100827.39
2018-06-18T00:17:14.560Z,100832.45
2018-06-18T00:19:43.607Z,100831.09
2018-06-18T00:22:17.753Z,100828.03
2018-06-18T00:24:48.268Z,100825.85
2018-06-18T00:27:17.172Z,100820.94
2018-06-18T00:29:46.088Z,100829.56
2018-06-18T00:32:14.837Z,100833.62
2018-06-18T00:34:43.738Z,100836.50
2018-06-18T00:37:12.747Z,100834.78
2018-06-18T00:39:41.772Z,100838.35
2018-06-18T00:42:11.006Z,100847.47
2018-06-18T00:44:39.953Z,100848.82
2018-06-18T00:47:09.157Z,100852.02
2018-06-18T00:49:38.392Z,100845.92
2018-06-18T00:52:07.510Z,100842.89
2018-06-18T00:54:36.539Z,100837.97
2018-06-18T00:57:05.507Z,100840.32
2018-06-18T00:59:34.468Z,100844.88
2018-06-18T01:02:03.368Z,100844.02
2018-06-18T01:04:32.359Z,100846.23
2018-06-18T01:07:01.085Z,100846.73
2018-06-18T01:09:30.142Z,100843.20
2018-06-18T01:11:59.085Z,100841.48
2018-06-18T01:14:27.964Z,100840.13
2018-06-18T01:16:56.973Z,100844.20
2018-06-18T01:19:26.071Z,100845.19
2018-06-18T01:21:54.908Z,100847.90
2018-06-18T01:24:42.682Z,100851.95
2018-06-18T01:27:11.585Z,100842.16
2018-06-18T01:29:40.553Z,100843.51
2018-06-18T01:32:09.446Z,100847.21
2018-06-18T01:34:38.142Z,100838.23
2018-06-18T01:37:07.064Z,100841.80
2018-06-18T01:39:36.103Z,100840.12
2018-06-18T01:42:05.090Z,100842.66
2018-06-18T01:44:34.022Z,100841.80
2018-06-18T01:47:03.115Z,100840.94
2018-06-18T01:49:32.172Z,100844.17
2018-06-18T01:52:02.066Z,100837.91
2018-06-18T01:54:31.082Z,100845.17
2018-06-18T01:56:59.918Z,100846.52
2018-06-18T01:59:28.877Z,100837.05
2018-06-18T02:01:58.309Z,100843.81
2018-06-18T02:04:27.921Z,100846.16
2018-06-18T02:06:56.825Z,100839.92
2018-06-18T02:09:25.573Z,100836.36
2018-06-18T02:11:54.418Z,100836.69
2018-06-18T02:14:23.392Z,100837.36
2018-06-18T02:16:52.291Z,100845.48
2018-06-18T02:19:21.173Z,100841.42
2018-06-18T02:21:50.175Z,100838.88
2018-06-18T02:24:19.264Z,100832.61
2018-06-18T02:26:48.289Z,100823.08
2018-06-18T02:29:22.494Z,100829.05
2018-06-18T02:31:56.701Z,100828.19
2018-06-18T02:34:30.766Z,100826.52
2018-06-18T02:37:04.650Z,100831.25
2018-06-18T02:39:36.758Z,100832.11
2018-06-18T02:42:05.977Z,100835.31
2018-06-18T02:44:34.726Z,100834.65
2018-06-18T02:47:03.643Z,100836.36
2018-06-18T02:49:32.727Z,100827.74
2018-06-18T02:52:02.729Z,100830.78
2018-06-18T02:54:31.724Z,100830.11
2018-06-18T02:57:03.534Z,100825.91
2018-06-18T02:59:32.590Z,100828.12
2018-06-18T03:02:01.677Z,100825.74
2018-06-18T03:04:30.620Z,100832.38
2018-06-18T03:06:59.533Z,100833.06
2018-06-18T03:09:28.542Z,100835.95
2018-06-18T03:11:57.452Z,100829.02
2018-06-18T03:14:26.392Z,100829.02
2018-06-18T03:16:55.355Z,100832.77
2018-06-18T03:19:29.207Z,100832.63
2018-06-18T03:22:03.209Z,100829.08
2018-06-18T03:24:37.270Z,100830.79
2018-06-18T03:27:11.341Z,100832.33
2018-06-18T03:29:40.204Z,100835.72
2018-06-18T03:32:12.454Z,100838.28
2018-06-18T03:34:41.370Z,100835.91
2018-06-18T03:37:12.185Z,100828.82
2018-06-18T03:39:41.057Z,100840.20
2018-06-18T03:42:09.971Z,100843.59
2018-06-18T03:45:19.332Z,100848.84
2018-06-18T03:47:48.244Z,100845.98
2018-06-18T03:50:17.222Z,100843.46
2018-06-18T03:52:46.219Z,100846.86
2018-06-18T03:55:22.927Z,100854.81
2018-06-18T03:57:51.954Z,100849.11
2018-06-18T04:00:20.848Z,100847.61
2018-06-18T04:02:57.268Z,100843.87
2018-06-18T04:05:31.301Z,100850.83
2018-06-18T04:08:02.823Z,100853.40
2018-06-18T04:10:38.371Z,100856.30
2018-06-18T04:13:07.835Z,100859.33
2018-06-18T04:15:36.673Z,100859.19
2018-06-18T04:18:05.649Z,100860.73
2018-06-18T04:20:50.368Z,100860.91
2018-06-18T04:23:19.477Z,100861.23
2018-06-18T04:25:48.412Z,100863.80
2018-06-18T04:28:19.417Z,100867.69
2018-06-18T04:30:48.406Z,100865.70
2018-06-18T04:33:20.778Z,100870.09
2018-06-18T04:35:49.757Z,100874.02
2018-06-18T04:38:18.650Z,100879.76
2018-06-18T04:40:47.707Z,100876.38
2018-06-18T04:43:22.213Z,100873.16
2018-06-18T04:45:56.301Z,100878.94
2018-06-18T04:48:30.170Z,100872.48
2018-06-18T04:51:01.184Z,100874.20
2018-06-18T04:53:30.861Z,100874.56
2018-06-18T04:55:59.864Z,100878.45
2018-06-18T04:58:29.097Z,100878.45
2018-06-18T05:01:29.923Z,100876.23
2018-06-18T05:03:58.851Z,100877.59
2018-06-18T05:06:28.925Z,100881.16
2018-06-18T05:09:08.344Z,100868.61
2018-06-18T05:11:37.300Z,100877.95
2018-06-18T05:14:06.281Z,100875.73
2018-06-18T05:16:35.098Z,100878.30
2018-06-18T05:19:04.266Z,100875.59
2018-06-18T05:21:33.694Z,100879.12
2018-06-18T05:24:02.984Z,100874.56
2018-06-18T05:26:32.567Z,100874.06
2018-06-18T05:29:01.559Z,100872.71
2018-06-18T05:31:30.561Z,100872.53
2018-06-18T05:33:59.749Z,100873.88
2018-06-18T05:36:28.526Z,100869.46
2018-06-18T05:38:57.295Z,100877.09
2018-06-18T05:41:26.101Z,100866.92
2018-06-18T05:43:54.857Z,100872.84
2018-06-18T05:46:23.661Z,100876.55
2018-06-18T05:48:52.463Z,100869.45
2018-06-18T05:51:21.899Z,100869.45
2018-06-18T05:53:50.740Z,100863.17
2018-06-18T05:56:19.527Z,100870.81
2018-06-18T05:58:48.278Z,100870.81
2018-06-18T06:01:18.008Z,100863.53
2018-06-18T06:03:47.074Z,100868.42
2018-06-18T06:06:15.910Z,100869.14
2018-06-18T06:08:44.732Z,100869.63
2018-06-18T06:11:13.528Z,100877.59
2018-06-18T06:13:42.450Z,100875.59
2018-06-18T06:16:11.202Z,100875.06
2018-06-18T06:18:39.929Z,100873.56
2018-06-18T06:21:10.677Z,100869.83
2018-06-18T06:23:39.443Z,100874.25
2018-06-18T06:26:08.363Z,100865.76
2018-06-18T06:28:37.371Z,100875.42
2018-06-18T06:31:06.524Z,100868.66
2018-06-18T06:33:35.572Z,100877.50
2018-06-18T06:36:05.045Z,100875.61
2018-06-18T06:38:34.331Z,100875.78
2018-06-18T06:41:03.587Z,100879.22
2018-06-18T06:43:32.415Z,100879.53
2018-06-18T06:46:01.271Z,100879.53
2018-06-18T06:48:30.358Z,100885.81
2018-06-18T06:50:59.295Z,100880.75
2018-06-18T06:53:28.272Z,100882.61
2018-06-18T06:55:57.095Z,100869.87
2018-06-18T06:58:26.059Z,100873.97
2018-06-18T07:00:55.062Z,100869.91
2018-06-18T07:03:23.975Z,100872.11
2018-06-18T07:05:53.205Z,100872.11
2018-06-18T07:08:22.158Z,100869.91
2018-06-18T07:10:51.186Z,100870.91
2018-06-18T07:13:20.392Z,100877.68
2018-06-18T07:15:49.225Z,100874.11
2018-06-18T07:18:18.228Z,100874.79
2018-06-18T07:20:47.232Z,100873.44
2018-06-18T07:23:16.128Z,100882.39
2018-06-18T07:25:45.159Z,100873.58
2018-06-18T07:28:14.140Z,100870.54
2018-06-18T07:30:43.098Z,100879.67
2018-06-18T07:33:12.268Z,100874.06
2018-06-18T07:35:41.289Z,100867.96
2018-06-18T07:38:10.290Z,100867.11
2018-06-18T07:40:39.371Z,100874.56
2018-06-18T07:43:08.223Z,100874.20
2018-06-18T07:45:37.371Z,100878.77
2018-06-18T07:48:06.976Z,100882.65
2018-06-18T07:50:35.960Z,100880.11
2018-06-18T07:53:04.918Z,100887.39
2018-06-18T07:55:33.859Z,100884.85
2018-06-18T07:58:02.907Z,100883.14
2018-06-18T08:00:31.900Z,100883.31
2018-06-18T08:03:00.937Z,100889.23
2018-06-18T08:05:29.877Z,100895.65
2018-06-18T08:07:59.008Z,100892.58
2018-06-18T08:10:28.060Z,100888.19
2018-06-18T08:12:57.112Z,100888.69
2018-06-18T08:15:26.047Z,100887.34
2018-06-18T08:17:55.153Z,100888.33
2018-06-18T08:20:24.203Z,100881.56
2018-06-18T08:22:53.167Z,100883.59
2018-06-18T08:25:22.234Z,100889.36
2018-06-18T08:27:51.295Z,100890.72
2018-06-18T08:30:21.064Z,100882.23
2018-06-18T08:32:49.946Z,100881.37
2018-06-18T08:35:18.944Z,100888.68
2018-06-18T08:37:47.863Z,100888.68
2018-06-18T08:40:16.766Z,100885.97
2018-06-18T08:42:45.728Z,100882.41
2018-06-18T08:45:14.622Z,100882.41
2018-06-18T08:47:43.802Z,100891.03
2018-06-18T08:50:17.856Z,100889.18
2018-06-18T08:52:52.052Z,100901.87
2018-06-18T08:55:26.206Z,100906.94
2018-06-18T08:58:00.359Z,100915.92
2018-06-18T09:00:34.492Z,100905.58
2018-06-18T09:03:09.721Z,100900.33
2018-06-18T09:05:42.762Z,100889.49
2018-06-18T09:08:13.233Z,100898.13
2018-06-18T09:10:42.298Z,100899.98
2018-06-18T09:13:11.915Z,100893.73
2018-06-18T09:15:40.991Z,100887.28
2018-06-18T09:18:09.869Z,100889.49
2018-06-18T09:20:38.847Z,100882.72
2018-06-18T09:23:10.208Z,100884.76
2018-06-18T09:25:44.347Z,100885.61
2018-06-18T09:28:13.520Z,100881.55
2018-06-18T09:30:42.613Z,100881.05
2018-06-18T09:33:11.576Z,100881.05
2018-06-18T09:35:40.567Z,100875.13
2018-06-18T09:38:09.618Z,100869.71
2018-06-18T09:40:38.588Z,100875.95
2018-06-18T09:43:08.382Z,100887.33
2018-06-18T09:45:37.352Z,100883.27
2018-06-18T09:48:06.427Z,100881.91
2018-06-18T09:50:40.583Z,100878.66
2018-06-18T09:53:14.813Z,100870.71
2018-06-18T09:55:49.077Z,100877.98
2018-06-18T09:58:23.355Z,100869.17
2018-06-18T10:01:04.857Z,100866.46
2018-06-18T10:03:34.063Z,100869.34
2018-06-18T10:06:04.184Z,100866.64
2018-06-18T10:08:33.275Z,100868.48
2018-06-18T10:11:02.122Z,100875.77
2018-06-18T10:13:31.142Z,100877.12
2018-06-18T10:16:01.078Z,100881.67
2018-06-18T10:18:30.079Z,100879.83
2018-06-18T10:20:59.189Z,100879.83
2018-06-18T10:23:28.262Z,100874.05
2018-06-18T10:25:57.348Z,100875.94
2018-06-18T10:28:26.314Z,100883.20
2018-06-18T10:30:55.431Z,100884.06
2018-06-18T10:33:29.372Z,100882.35
2018-06-18T10:36:03.692Z,100882.35
2018-06-18T10:38:38.116Z,100873.36
2018-06-18T10:41:12.102Z,100876.58
2018-06-18T10:43:41.088Z,100877.60
2018-06-18T10:46:10.066Z,100872.19
2018-06-18T10:48:39.007Z,100870.30
2018-06-18T10:51:07.771Z,100875.58
2018-06-18T10:53:36.742Z,100881.00
2018-06-18T10:56:06.175Z,100882.35
2018-06-18T10:58:35.132Z,100881.49
2018-06-18T11:01:07.021Z,100890.48
2018-06-18T11:03:36.088Z,100886.05
2018-06-18T11:06:09.951Z,100882.35
2018-06-18T11:08:38.884Z,100885.20
2018-06-18T11:11:08.155Z,100892.83
2018-06-18T11:13:36.974Z,100898.42
2018-06-18T11:16:06.143Z,100893.50
2018-06-18T11:18:40.074Z,100890.80
2018-06-18T11:21:14.219Z,100894.50
2018-06-18T11:23:48.227Z,100889.61
2018-06-18T11:26:22.374Z,100888.25
2018-06-18T11:28:51.115Z,100890.61
2018-06-18T11:31:20.218Z,100893.31
2018-06-18T11:33:49.275Z,100892.95
2018-06-18T11:36:18.553Z,100887.90
2018-06-18T11:38:47.798Z,100884.50
2018-06-18T11:41:16.909Z,100894.31
2018-06-18T11:43:45.763Z,100892.45
2018-06-18T11:46:14.824Z,100894.84
2018-06-18T11:48:44.394Z,100892.95
2018-06-18T11:51:13.388Z,100891.10
2018-06-18T11:53:42.344Z,100887.90
2018-06-18T11:56:11.352Z,100878.91
2018-06-18T11:58:45.482Z,100884.83
2018-06-18T12:01:19.980Z,100891.96
2018-06-18T12:03:54.022Z,100889.25
2018-06-18T12:06:28.495Z,100884.33
2018-06-18T12:09:02.825Z,100888.89
2018-06-18T12:11:31.893Z,100892.95
2018-06-18T12:14:00.819Z,100885.86
2018-06-18T12:16:34.030Z,100894.67
2018-06-18T12:19:03.564Z,100889.75
2018-06-18T12:21:32.794Z,100884.00
2018-06-18T12:24:02.072Z,100880.77
2018-06-18T12:26:31.623Z,100887.21
2018-06-18T12:29:00.797Z,100880.77
2018-06-18T12:31:29.983Z,100872.31
2018-06-18T12:33:59.315Z,100874.16
2018-06-18T12:36:28.196Z,100879.59
2018-06-18T12:38:57.317Z,100869.21
2018-06-18T12:41:26.196Z,100868.75
2018-06-18T12:43:57.680Z,100866.89
2018-06-18T12:46:32.124Z,100866.50
2018-06-18T12:49:06.386Z,100860.23
2018-06-18T12:52:44.513Z,100865.65
2018-06-18T12:55:18.459Z,100856.51
2018-06-18T12:57:47.501Z,100856.65
2018-06-18T13:00:16.710Z,100854.97
2018-06-18T13:02:50.522Z,100852.59
2018-06-18T13:05:19.575Z,100853.09
2018-06-18T13:07:48.690Z,100850.91
2018-06-18T13:10:17.770Z,100855.30
2018-06-18T13:12:46.901Z,100853.94
2018-06-18T13:15:15.898Z,100864.28
2018-06-18T13:17:45.101Z,100862.06
2018-06-18T13:20:14.145Z,100861.21
2018-06-18T13:22:43.430Z,100871.05
2018-06-18T13:25:12.364Z,100867.84
2018-06-18T13:27:46.598Z,100855.66
2018-06-18T13:30:15.791Z,100868.70
2018-06-18T13:32:44.933Z,100863.11
2018-06-18T13:35:14.114Z,100864.11
2018-06-18T13:37:48.051Z,100862.25
2018-06-18T13:40:22.281Z,100853.27
2018-06-18T13:42:56.560Z,100856.84
2018-06-18T13:45:30.727Z,100858.69
2018-06-18T13:48:04.933Z,100856.34
2018-06-18T13:50:34.047Z,100853.80
2018-06-18T13:53:03.686Z,100846.50
2018-06-18T13:55:32.824Z,100851.42
2018-06-18T13:58:02.070Z,100841.94
2018-06-18T14:00:31.103Z,100844.15
2018-06-18T14:03:00.132Z,100840.58
2018-06-18T14:05:28.958Z,100844.15
2018-06-18T14:07:58.162Z,100840.94
2018-06-18T14:10:27.258Z,100843.29
2018-06-18T14:12:56.404Z,100844.15
2018-06-18T14:15:25.294Z,100847.85
2018-06-18T14:17:54.375Z,100842.30
2018-06-18T14:20:24.760Z,100844.64
2018-06-18T14:22:54.173Z,100843.65
2018-06-18T14:25:23.330Z,100838.38
2018-06-18T14:27:52.236Z,100833.48
2018-06-18T14:30:26.303Z,100828.56
2018-06-18T14:33:00.317Z,100829.42
2018-06-18T14:35:34.747Z,100828.56
2018-06-18T14:38:08.862Z,100822.79
2018-06-18T14:40:37.781Z,100831.77
2018-06-18T14:43:07.104Z,100826.00
2018-06-18T14:45:36.119Z,100814.84
2018-06-18T14:48:05.307Z,100825.67
2018-06-18T14:50:34.822Z,100822.96
2018-06-18T14:53:03.756Z,100821.61
2018-06-18T14:55:32.706Z,100816.69
2018-06-18T14:58:01.972Z,100816.69
2018-06-18T15:00:32.647Z,100818.05
2018-06-18T15:03:01.879Z,100812.27
2018-06-18T15:05:36.726Z,100807.34
2018-06-18T15:08:05.767Z,100806.53
2018-06-18T15:10:40.028Z,100809.73
2018-06-18T15:13:11.094Z,100815.65
2018-06-18T15:15:45.191Z,100813.44
2018-06-18T15:18:14.092Z,100809.87
2018-06-18T15:20:43.195Z,100808.02
2018-06-18T15:23:12.329Z,100808.20
2018-06-18T15:25:47.060Z,100802.92
2018-06-18T15:28:16.008Z,100803.28
2018-06-18T15:30:45.027Z,100800.21
2018-06-18T15:33:14.087Z,100795.65
2018-06-18T15:35:43.293Z,100793.97
2018-06-18T15:38:12.341Z,100788.02
2018-06-18T15:40:41.267Z,100780.08
2018-06-18T15:43:10.297Z,100779.89
2018-06-18T15:45:39.313Z,100775.02
2018-06-18T15:48:08.359Z,100765.86
2018-06-18T15:50:37.419Z,100762.65
2018-06-18T15:53:06.385Z,100757.73
2018-06-18T15:55:35.307Z,100755.52
2018-06-18T15:58:04.533Z,100749.61
2018-06-18T16:00:33.783Z,100754.70
2018-06-18T16:03:02.807Z,100740.12
2018-06-18T16:05:31.933Z,100749.11
2018-06-18T16:08:00.922Z,100740.12
2018-06-18T16:10:29.942Z,100747.75
2018-06-18T16:12:59.062Z,100739.63
2018-06-18T16:15:28.028Z,100733.71
2018-06-18T16:17:57.045Z,100735.92
2018-06-18T16:20:26.084Z,100736.42
2018-06-18T16:22:55.518Z,100754.52
2018-06-18T16:25:24.474Z,100748.61
2018-06-18T16:27:53.516Z,100739.45
2018-06-18T16:30:22.554Z,100739.13
2018-06-18T16:32:51.645Z,100739.98
2018-06-18T16:35:20.789Z,100750.81
2018-06-18T16:37:49.859Z,100752.99
2018-06-18T16:40:18.680Z,100744.55
2018-06-18T16:42:47.701Z,100755.20
2018-06-18T16:45:16.689Z,100756.56
2018-06-18T16:47:45.610Z,100757.06
2018-06-18T16:50:14.891Z,100756.23
2018-06-18T16:52:44.023Z,100752.67
2018-06-18T16:55:13.199Z,100747.75
2018-06-18T16:57:42.150Z,100753.17
2018-06-18T17:00:11.301Z,100749.96
2018-06-18T17:02:40.473Z,100745.55
2018-06-18T17:05:09.327Z,100753.67
2018-06-18T17:07:38.186Z,100754.17
2018-06-18T17:10:07.288Z,100741.16
2018-06-18T17:12:36.467Z,100735.73
2018-06-18T17:15:05.613Z,100736.73
2018-06-18T17:17:34.771Z,100734.53
2018-06-18T17:20:03.916Z,100735.02
2018-06-18T17:22:33.002Z,100736.91
2018-06-18T17:25:02.004Z,100747.39
2018-06-18T17:27:31.095Z,100745.18
2018-06-18T17:30:00.014Z,100740.80
2018-06-18T17:32:29.093Z,100749.73
2018-06-18T17:34:58.186Z,100747.56
2018-06-18T17:37:27.189Z,100741.79
2018-06-18T17:39:56.297Z,100749.91
2018-06-18T17:42:25.313Z,100750.41
2018-06-18T17:44:54.474Z,100752.27
2018-06-18T17:47:23.588Z,100748.87
2018-06-18T17:49:52.658Z,100744.31
2018-06-18T17:52:21.699Z,100743.10
2018-06-18T17:54:50.954Z,100748.02
2018-06-18T17:57:20.104Z,100747.70
2018-06-18T17:59:49.201Z,100748.02
2018-06-18T18:02:18.157Z,100739.58
2018-06-18T18:04:47.079Z,100737.69
2018-06-18T18:07:16.277Z,100745.31
2018-06-18T18:09:45.263Z,100733.80
2018-06-18T18:12:14.273Z,100742.28
2018-06-18T18:14:43.415Z,100739.58
2018-06-18T18:17:12.228Z,100736.01
2018-06-18T18:19:41.242Z,100737.36
2018-06-18T18:22:10.409Z,100733.30
2018-06-18T18:24:39.390Z,100725.17
2018-06-18T18:27:08.244Z,100730.23
2018-06-18T18:29:37.314Z,100713.48
2018-06-18T18:32:06.445Z,100714.84
2018-06-18T18:34:35.366Z,100715.34
2018-06-18T18:37:06.202Z,100717.20
2018-06-18T18:39:35.369Z,100716.38
2018-06-18T18:42:04.893Z,100712.64
2018-06-18T18:44:34.049Z,100709.60
2018-06-18T18:47:03.206Z,100705.54
2018-06-18T18:49:32.410Z,100700.12
2018-06-18T18:52:01.489Z,100702.84
2018-06-18T18:55:50.219Z,100705.19
2018-06-18T18:58:59.150Z,100722.11
2018-06-18T19:01:28.754Z,100719.22
2018-06-18T19:04:00.280Z,100712.94
2018-06-18T19:06:29.569Z,100706.67
2018-06-18T19:08:58.856Z,100712.94
2018-06-18T19:11:28.043Z,100718.86
2018-06-18T19:13:56.785Z,100722.42
2018-06-18T19:16:25.813Z,100727.34
2018-06-18T19:18:59.012Z,100724.27
2018-06-18T19:21:28.282Z,100726.13
2018-06-18T19:23:57.535Z,100730.55
2018-06-18T19:26:26.753Z,100736.45
2018-06-18T19:28:55.941Z,100735.59
2018-06-18T19:31:25.908Z,100736.95
2018-06-18T19:34:07.080Z,100737.63
2018-06-18T19:36:36.341Z,100732.21
2018-06-18T19:39:08.213Z,100728.15
2018-06-18T19:41:37.443Z,100724.59
2018-06-18T19:44:06.818Z,100712.08
2018-06-18T19:46:52.114Z,100714.79
2018-06-18T19:49:21.405Z,100719.84
2018-06-18T19:51:50.447Z,100713.58
2018-06-18T19:54:22.354Z,100713.25
2018-06-18T19:56:51.309Z,100709.19
2018-06-18T19:59:21.322Z,100706.12
2018-06-18T20:01:50.489Z,100715.10
2018-06-18T20:04:19.589Z,100704.41
2018-06-18T20:06:48.788Z,100706.62
2018-06-18T20:09:17.894Z,100704.41
2018-06-18T20:11:47.028Z,100706.12
2018-06-18T20:14:16.086Z,100697.82
2018-06-18T20:16:45.153Z,100700.53
2018-06-18T20:19:14.297Z,100690.19
2018-06-18T20:21:43.340Z,100696.97
2018-06-18T20:24:12.607Z,100692.58
2018-06-18T20:26:41.920Z,100685.81
2018-06-18T20:29:11.013Z,100685.81
2018-06-18T20:31:40.105Z,100680.40
2018-06-18T20:34:09.230Z,100683.92
2018-06-18T20:36:38.334Z,100680.89
2018-06-18T20:39:11.224Z,100680.40
2018-06-18T20:41:40.128Z,100672.28
2018-06-18T20:44:17.623Z,100672.28
2018-06-18T20:46:46.475Z,100667.86
2018-06-18T20:49:16.246Z,100657.89
2018-06-18T20:51:45.811Z,100658.74
2018-06-18T20:54:15.064Z,100654.83
2018-06-18T20:56:44.289Z,100654.83
2018-06-18T20:59:14.416Z,100658.38
2018-06-18T21:01:43.588Z,100657.03
2018-06-18T21:04:12.891Z,100651.13
2018-06-18T21:06:42.215Z,100653.83
2018-06-18T21:09:12.145Z,100652.97
2018-06-18T21:11:41.320Z,100655.68
2018-06-18T21:14:11.269Z,100653.47
2018-06-18T21:16:42.633Z,100645.02
2018-06-18T21:19:11.795Z,100649.41
2018-06-18T21:21:40.774Z,100643.14
2018-06-18T21:24:10.017Z,100648.91
2018-06-18T21:26:39.071Z,100651.62
2018-06-18T21:29:08.418Z,100647.91
2018-06-18T21:31:37.576Z,100647.73
2018-06-18T21:34:06.879Z,100643.18
2018-06-18T21:36:35.735Z,100643.00
2018-06-18T21:39:06.940Z,100642.86
2018-06-18T21:41:35.897Z,100628.47
2018-06-18T21:44:05.515Z,100631.86
2018-06-18T21:46:34.573Z,100629.01
2018-06-18T21:49:03.430Z,100631.54
2018-06-18T21:51:32.382Z,100634.07
2018-06-18T21:54:01.226Z,100619.18
2018-06-18T21:56:30.042Z,100619.03
2018-06-18T21:58:58.899Z,100615.83
2018-06-18T22:01:36.924Z,100612.94
2018-06-18T22:04:06.074Z,100607.53
2018-06-18T22:06:34.949Z,100608.38
2018-06-18T22:09:04.023Z,100605.67
2018-06-18T22:11:32.795Z,100597.55
2018-06-18T22:14:01.624Z,100597.05
2018-06-18T22:16:30.530Z,100609.56
2018-06-18T22:18:59.309Z,100600.94
2018-06-18T22:21:28.209Z,100597.73
2018-06-18T22:23:57.310Z,100599.94
2018-06-18T22:26:26.499Z,100595.88
2018-06-18T22:28:55.563Z,100590.11
2018-06-18T22:31:24.701Z,100592.31
2018-06-18T22:33:53.914Z,100579.27
2018-06-18T22:36:22.846Z,100580.27
2018-06-18T22:38:51.890Z,100572.69
2018-06-18T22:41:20.766Z,100569.63
2018-06-18T22:43:49.733Z,100559.80
2018-06-18T22:46:18.920Z,100557.62
2018-06-18T22:48:47.910Z,100553.20
2018-06-18T22:51:16.899Z,100542.88
2018-06-18T22:53:46.317Z,100541.20
2018-06-18T22:56:15.607Z,100523.42
2018-06-18T22:58:44.604Z,100518.01
2018-06-18T23:01:13.879Z,100516.30
2018-06-18T23:03:42.765Z,100517.30
2018-06-18T23:06:12.098Z,100515.09
2018-06-18T23:08:41.198Z,100515.27
2018-06-18T23:11:10.353Z,100501.38
2018-06-18T23:13:40.061Z,100512.20
2018-06-18T23:16:09.720Z,100504.95
2018-06-18T23:18:39.454Z,100491.59
2018-06-18T23:21:08.582Z,100495.15
2018-06-18T23:23:37.821Z,100492.94
2018-06-18T23:26:06.829Z,100488.88
2018-06-18T23:28:52.402Z,100498.85
2018-06-18T23:31:21.402Z,100510.68
2018-06-18T23:33:50.542Z,100495.80
2018-06-18T23:36:20.085Z,100465.70
2018-06-18T23:38:50.156Z,100456.72
2018-06-18T23:41:19.828Z,100459.43
2018-06-18T23:43:49.229Z,100466.70
2018-06-18T23:46:18.491Z,100462.31
2018-06-18T23:48:47.729Z,100472.61
2018-06-18T23:51:16.865Z,100475.31
2018-06-18T23:53:46.213Z,100476.34
2018-06-18T23:56:15.368Z,100473.64
2018-06-18T23:58:44.438Z,100479.06
